createdAt,value
2017-11-01T00:00:24.310Z,88.7
2017-11-01T00:01:26.683Z,88.5
2017-11-01T00:02:29.420Z,88.6
2017-11-01T00:03:31.791Z,88.5
2017-11-01T00:04:34.169Z,88.6
2017-11-01T00:05:36.549Z,88.5
2017-11-01T00:06:38.948Z,88.7
2017-11-01T00:07:41.322Z,88.8
2017-11-01T00:08:43.698Z,88.8
2017-11-01T00:09:46.067Z,88.8
2017-11-01T00:10:48.440Z,88.8
2017-11-01T00:11:50.815Z,88.8
2017-11-01T00:12:53.197Z,88.8
2017-11-01T00:13:55.575Z,88.8
2017-11-01T00:14:58.298Z,88.8
2017-11-01T00:16:00.672Z,88.8
2017-11-01T00:17:03.050Z,88.7
2017-11-01T00:18:05.458Z,88.8
2017-11-01T00:19:07.851Z,88.8
2017-11-01T00:20:10.239Z,88.8
2017-11-01T00:21:12.961Z,88.8
2017-11-01T00:22:15.344Z,88.8
2017-11-01T00:23:17.723Z,88.9
2017-11-01T00:24:20.113Z,88.8
2017-11-01T00:25:22.496Z,88.8
2017-11-01T00:26:24.889Z,88.9
2017-11-01T00:27:27.264Z,89
2017-11-01T00:28:29.640Z,88.9
2017-11-01T00:29:32.004Z,89
2017-11-01T00:30:35.161Z,88.9
2017-11-01T00:31:40.505Z,88.8
2017-11-01T00:32:54.238Z,88.9
2017-11-01T00:34:04.512Z,88.7
2017-11-01T00:35:24.540Z,88.8
2017-11-01T00:36:47.010Z,88.7
2017-11-01T00:37:57.294Z,88.8
2017-11-01T00:39:03.801Z,88.8
2017-11-01T00:40:13.377Z,88.6
2017-11-01T00:41:26.604Z,88.7
2017-11-01T00:42:39.540Z,88.7
2017-11-01T00:43:50.771Z,88.7
2017-11-01T00:45:03.354Z,88.8
2017-11-01T00:46:20.915Z,88.8
2017-11-01T00:47:30.090Z,89
2017-11-01T00:48:39.325Z,88.9
2017-11-01T00:49:55.586Z,88.9
2017-11-01T00:51:11.527Z,88.8
2017-11-01T00:52:28.545Z,88.9
2017-11-01T00:53:40.787Z,88.9
2017-11-01T00:54:56.376Z,89.1
2017-11-01T00:56:04.844Z,89.2
2017-11-01T00:57:29.791Z,89.3
2017-11-01T00:58:41.794Z,89.2
2017-11-01T00:59:55.181Z,89.2
2017-11-01T01:00:59.935Z,89
2017-11-01T01:02:02.664Z,88.9
2017-11-01T01:03:05.425Z,89
2017-11-01T01:04:07.801Z,89
2017-11-01T01:05:10.180Z,88.9
2017-11-01T01:06:12.555Z,88.8
2017-11-01T01:07:14.931Z,88.9
2017-11-01T01:08:17.304Z,89
2017-11-01T01:09:19.678Z,89.1
2017-11-01T01:10:22.048Z,89.2
2017-11-01T01:11:24.434Z,89.1
2017-11-01T01:12:26.804Z,89.1
2017-11-01T01:13:29.181Z,88.9
2017-11-01T01:14:31.564Z,88.8
2017-11-01T01:15:33.943Z,88.8
2017-11-01T01:16:36.327Z,88.8
2017-11-01T01:17:38.691Z,88.7
2017-11-01T01:18:41.065Z,88.9
2017-11-01T01:19:43.450Z,88.8
2017-11-01T01:20:46.186Z,88.8
2017-11-01T01:21:48.548Z,88.8
2017-11-01T01:22:50.944Z,88.8
2017-11-01T01:23:53.327Z,88.8
2017-11-01T01:24:55.708Z,88.9
2017-11-01T01:25:58.083Z,88.9
2017-11-01T01:27:00.456Z,88.8
2017-11-01T01:28:03.173Z,88.9
2017-11-01T01:29:05.574Z,88.8
2017-11-01T01:30:07.961Z,88.9
2017-11-01T01:31:10.328Z,88.8
2017-11-01T01:32:12.706Z,88.9
2017-11-01T01:33:15.075Z,88.9
2017-11-01T01:34:17.816Z,88.9
2017-11-01T01:35:20.186Z,88.8
2017-11-01T01:36:22.923Z,88.8
2017-11-01T01:37:25.299Z,88.8
2017-11-01T01:38:27.676Z,88.8
2017-11-01T01:39:30.070Z,88.9
2017-11-01T01:40:32.445Z,88.9
2017-11-01T01:41:35.163Z,88.9
2017-11-01T01:42:37.544Z,89
2017-11-01T01:43:39.932Z,88.9
2017-11-01T01:44:42.305Z,88.9
2017-11-01T01:45:44.686Z,88.9
2017-11-01T01:46:47.063Z,88.8
2017-11-01T01:47:49.449Z,88.9
2017-11-01T01:48:52.913Z,88.8
2017-11-01T01:49:55.288Z,88.8
2017-11-01T01:50:57.678Z,88.8
2017-11-01T01:52:00.057Z,88.8
2017-11-01T01:53:02.444Z,88.8
2017-11-01T01:54:04.872Z,88.8
2017-11-01T01:55:07.237Z,88.6
2017-11-01T01:56:09.612Z,88.3
2017-11-01T01:57:11.985Z,88.5
2017-11-01T01:58:14.364Z,88.6
2017-11-01T01:59:16.736Z,88.7
2017-11-01T02:00:19.109Z,88.8
2017-11-01T02:01:21.493Z,88.6
2017-11-01T02:02:24.219Z,88.7
2017-11-01T02:03:26.587Z,88.9
2017-11-01T02:04:28.970Z,88.8
2017-11-01T02:05:31.347Z,88.6
2017-11-01T02:06:33.712Z,88.7
2017-11-01T02:07:36.086Z,88.8
2017-11-01T02:08:38.468Z,88.8
2017-11-01T02:09:40.841Z,88.8
2017-11-01T02:10:43.226Z,88.8
2017-11-01T02:11:45.606Z,88.8
2017-11-01T02:12:47.973Z,88.8
2017-11-01T02:13:50.713Z,88.9
2017-11-01T02:14:53.085Z,89
2017-11-01T02:15:55.460Z,88.9
2017-11-01T02:16:57.823Z,89
2017-11-01T02:18:00.205Z,88.9
2017-11-01T02:19:02.939Z,88.9
2017-11-01T02:20:05.311Z,88.7
2017-11-01T02:21:07.693Z,88.7
2017-11-01T02:22:10.069Z,88.8
2017-11-01T02:23:12.437Z,88.8
2017-11-01T02:24:14.832Z,88.8
2017-11-01T02:25:17.212Z,88.9
2017-11-01T02:26:19.582Z,88.9
2017-11-01T02:27:22.326Z,88.8
2017-11-01T02:28:25.047Z,88.9
2017-11-01T02:29:27.424Z,88.8
2017-11-01T02:30:29.807Z,88.8
2017-11-01T02:31:32.174Z,88.8
2017-11-01T02:32:34.899Z,88.9
2017-11-01T02:33:37.288Z,88.8
2017-11-01T02:34:39.667Z,88.9
2017-11-01T02:35:42.040Z,88.9
2017-11-01T02:36:44.406Z,88.8
2017-11-01T02:37:46.774Z,88.9
2017-11-01T02:38:49.184Z,88.9
2017-11-01T02:39:51.564Z,88.9
2017-11-01T02:40:53.923Z,89
2017-11-01T02:41:56.307Z,89.1
2017-11-01T02:42:58.680Z,89
2017-11-01T02:44:01.063Z,88.9
2017-11-01T02:45:03.783Z,88.9
2017-11-01T02:46:06.516Z,88.9
2017-11-01T02:47:08.893Z,88.8
2017-11-01T02:48:11.608Z,88.9
2017-11-01T02:49:13.988Z,88.9
2017-11-01T02:50:16.726Z,88.9
2017-11-01T02:51:19.096Z,88.9
2017-11-01T02:52:21.826Z,88.9
2017-11-01T02:53:24.200Z,89
2017-11-01T02:54:26.577Z,89
2017-11-01T02:55:28.960Z,89.1
2017-11-01T02:56:31.343Z,89.1
2017-11-01T02:57:33.739Z,89.1
2017-11-01T02:58:36.477Z,89.1
2017-11-01T02:59:38.856Z,89.1
2017-11-01T03:00:41.232Z,89.2
2017-11-01T03:01:43.645Z,89.4
2017-11-01T03:02:46.014Z,89.4
2017-11-01T03:03:48.403Z,89.6
2017-11-01T03:04:50.771Z,89.6
2017-11-01T03:05:53.150Z,89.6
2017-11-01T03:06:55.599Z,89.6
2017-11-01T03:07:57.966Z,89.6
2017-11-01T03:09:00.327Z,89.7
2017-11-01T03:10:02.701Z,89.9
2017-11-01T03:11:05.075Z,89.9
2017-11-01T03:12:07.449Z,89.9
2017-11-01T03:13:09.827Z,89.8
2017-11-01T03:14:12.207Z,89.9
2017-11-01T03:15:14.588Z,89.9
2017-11-01T03:16:16.954Z,89.8
2017-11-01T03:17:19.331Z,90
2017-11-01T03:18:21.718Z,89.9
2017-11-01T03:19:24.438Z,90
2017-11-01T03:20:26.808Z,90
2017-11-01T03:21:29.197Z,90
2017-11-01T03:22:31.929Z,90
2017-11-01T03:23:34.330Z,89.8
2017-11-01T03:24:36.705Z,89.8
2017-11-01T03:25:39.091Z,90
2017-11-01T03:26:41.474Z,90
2017-11-01T03:27:43.851Z,90
2017-11-01T03:28:46.223Z,89.9
2017-11-01T03:29:48.603Z,90
2017-11-01T03:30:50.970Z,90
2017-11-01T03:31:53.345Z,90
2017-11-01T03:32:55.743Z,90.1
2017-11-01T03:33:58.116Z,90.2
2017-11-01T03:35:00.495Z,90.2
2017-11-01T03:36:02.884Z,90.3
2017-11-01T03:37:05.257Z,90.3
2017-11-01T03:38:07.656Z,90.3
2017-11-01T03:39:10.369Z,90.3
2017-11-01T03:40:12.734Z,90.3
2017-11-01T03:41:15.126Z,90.2
2017-11-01T03:42:17.491Z,90.2
2017-11-01T03:43:19.887Z,90.2
2017-11-01T03:44:22.264Z,90.2
2017-11-01T03:45:24.660Z,90.2
2017-11-01T03:46:27.029Z,90.3
2017-11-01T03:47:29.409Z,90.3
2017-11-01T03:48:31.775Z,90.3
2017-11-01T03:49:34.172Z,90.4
2017-11-01T03:50:36.545Z,90.3
2017-11-01T03:51:38.921Z,90.3
2017-11-01T03:52:41.655Z,90.3
2017-11-01T03:53:44.392Z,90.3
2017-11-01T03:54:46.769Z,90.4
2017-11-01T03:55:49.162Z,90.4
2017-11-01T03:56:51.520Z,90.4
2017-11-01T03:57:54.264Z,90.4
2017-11-01T03:58:56.664Z,90.4
2017-11-01T03:59:59.023Z,90.5
2017-11-01T04:01:01.757Z,90.5
2017-11-01T04:02:04.127Z,90.5
2017-11-01T04:03:06.511Z,90.5
2017-11-01T04:04:08.892Z,90.4
2017-11-01T04:05:11.273Z,90.4
2017-11-01T04:06:13.641Z,90.5
2017-11-01T04:07:16.059Z,90.5
2017-11-01T04:08:18.431Z,90.5
2017-11-01T04:09:20.816Z,90.5
2017-11-01T04:10:23.205Z,90.5
2017-11-01T04:11:25.581Z,90.6
2017-11-01T04:12:28.317Z,90.6
2017-11-01T04:13:30.700Z,90.5
2017-11-01T04:14:33.068Z,90.6
2017-11-01T04:15:35.806Z,90.5
2017-11-01T04:16:38.175Z,90.5
2017-11-01T04:17:40.548Z,90.6
2017-11-01T04:18:42.917Z,90.5
2017-11-01T04:19:45.285Z,90.6
2017-11-01T04:20:47.679Z,90.5
2017-11-01T04:21:50.074Z,90.6
2017-11-01T04:22:52.464Z,90.7
2017-11-01T04:23:54.842Z,90.7
2017-11-01T04:24:57.228Z,90.7
2017-11-01T04:25:59.597Z,90.7
2017-11-01T04:27:02.317Z,90.7
2017-11-01T04:28:04.686Z,90.7
2017-11-01T04:29:07.065Z,90.6
2017-11-01T04:30:09.435Z,90.6
2017-11-01T04:31:11.799Z,90.6
2017-11-01T04:32:14.196Z,90.6
2017-11-01T04:33:16.578Z,90.6
2017-11-01T04:34:19.300Z,90.7
2017-11-01T04:35:21.684Z,90.7
2017-11-01T04:36:24.049Z,90.7
2017-11-01T04:37:26.427Z,90.7
2017-11-01T04:38:28.814Z,90.7
2017-11-01T04:39:31.535Z,90.7
2017-11-01T04:40:33.896Z,90.8
2017-11-01T04:41:36.631Z,90.8
2017-11-01T04:42:39.004Z,90.8
2017-11-01T04:43:41.376Z,90.8
2017-11-01T04:44:43.748Z,90.8
2017-11-01T04:45:46.123Z,90.7
2017-11-01T04:46:48.868Z,90.8
2017-11-01T04:47:51.257Z,90.8
2017-11-01T04:48:54.003Z,90.8
2017-11-01T04:49:56.384Z,90.8
2017-11-01T04:50:58.761Z,90.8
2017-11-01T04:52:01.139Z,90.8
2017-11-01T04:53:03.518Z,90.8
2017-11-01T04:54:05.885Z,90.9
2017-11-01T04:55:08.288Z,90.9
2017-11-01T04:56:10.658Z,90.8
2017-11-01T04:57:13.037Z,90.9
2017-11-01T04:58:15.408Z,90.8
2017-11-01T04:59:18.168Z,90.8
2017-11-01T05:00:20.896Z,90.8
2017-11-01T05:01:23.631Z,90.9
2017-11-01T05:02:26.010Z,90.8
2017-11-01T05:03:28.389Z,90.8
2017-11-01T05:04:30.765Z,90.9
2017-11-01T05:05:33.158Z,90.9
2017-11-01T05:06:35.522Z,90.9
2017-11-01T05:07:37.906Z,90.9
2017-11-01T05:08:40.295Z,90.9
2017-11-01T05:09:42.665Z,90.9
2017-11-01T05:10:45.398Z,90.9
2017-11-01T05:11:47.776Z,90.9
2017-11-01T05:12:50.143Z,90.9
2017-11-01T05:13:52.541Z,91
2017-11-01T05:14:55.253Z,91
2017-11-01T05:15:57.624Z,91
2017-11-01T05:17:00.001Z,91
2017-11-01T05:18:02.393Z,90.9
2017-11-01T05:19:04.769Z,90.9
2017-11-01T05:20:07.143Z,90.9
2017-11-01T05:21:09.526Z,90.9
2017-11-01T05:22:11.903Z,90.9
2017-11-01T05:23:14.628Z,91
2017-11-01T05:24:17.370Z,90.9
2017-11-01T05:25:19.735Z,90.9
2017-11-01T05:26:22.116Z,90.9
2017-11-01T05:27:24.493Z,91
2017-11-01T05:28:26.865Z,90.9
2017-11-01T05:29:29.252Z,90.9
2017-11-01T05:30:31.983Z,90.9
2017-11-01T05:31:34.353Z,90.9
2017-11-01T05:32:36.733Z,90.9
2017-11-01T05:33:39.112Z,91
2017-11-01T05:34:41.490Z,90.9
2017-11-01T05:35:43.879Z,90.9
2017-11-01T05:36:46.250Z,91
2017-11-01T05:37:48.639Z,91
2017-11-01T05:38:51.432Z,91
2017-11-01T05:39:53.806Z,91
2017-11-01T05:40:56.190Z,91
2017-11-01T05:41:58.913Z,91.1
2017-11-01T05:43:01.292Z,91.1
2017-11-01T05:44:04.066Z,91.1
2017-11-01T05:45:06.456Z,91.1
2017-11-01T05:46:08.842Z,91.1
2017-11-01T05:47:11.224Z,91
2017-11-01T05:48:13.601Z,91
2017-11-01T05:49:15.976Z,91
2017-11-01T05:50:18.345Z,91
2017-11-01T05:51:20.725Z,91.1
2017-11-01T05:52:23.093Z,91.1
2017-11-01T05:53:25.457Z,91.1
2017-11-01T05:54:27.836Z,91.2
2017-11-01T05:55:30.210Z,91.4
2017-11-01T05:56:32.595Z,91.4
2017-11-01T05:57:34.972Z,91.6
2017-11-01T05:58:37.365Z,91.6
2017-11-01T05:59:39.738Z,91.7
2017-11-01T06:00:42.127Z,91.7
2017-11-01T06:01:44.517Z,91.8
2017-11-01T06:02:46.885Z,91.8
2017-11-01T06:03:49.260Z,91.9
2017-11-01T06:04:51.654Z,92
2017-11-01T06:05:54.369Z,92
2017-11-01T06:06:57.097Z,92.1
2017-11-01T06:07:59.477Z,92.1
2017-11-01T06:09:01.858Z,92.1
2017-11-01T06:10:04.233Z,92.1
2017-11-01T06:11:06.616Z,92.1
2017-11-01T06:12:09.327Z,92.2
2017-11-01T06:13:11.735Z,92.2
2017-11-01T06:14:14.099Z,92.2
2017-11-01T06:15:16.473Z,92.2
2017-11-01T06:16:19.188Z,92.2
2017-11-01T06:17:21.585Z,92.2
2017-11-01T06:18:24.325Z,92.3
2017-11-01T06:19:26.698Z,92.3
2017-11-01T06:20:29.079Z,92.3
2017-11-01T06:21:31.451Z,92.3
2017-11-01T06:22:33.888Z,92.2
2017-11-01T06:23:36.642Z,92.2
2017-11-01T06:24:39.008Z,92.2
2017-11-01T06:25:41.396Z,92.2
2017-11-01T06:26:44.139Z,92.1
2017-11-01T06:27:46.861Z,92.2
2017-11-01T06:28:49.240Z,92.2
2017-11-01T06:29:51.970Z,92.4
2017-11-01T06:30:54.700Z,92.4
2017-11-01T06:31:57.073Z,92.5
2017-11-01T06:32:59.444Z,92.5
2017-11-01T06:34:01.821Z,92.6
2017-11-01T06:35:04.206Z,92.6
2017-11-01T06:36:06.566Z,92.6
2017-11-01T06:37:08.944Z,92.6
2017-11-01T06:38:11.320Z,92.6
2017-11-01T06:39:13.694Z,92.6
2017-11-01T06:40:16.075Z,92.6
2017-11-01T06:41:18.451Z,92.6
2017-11-01T06:42:20.830Z,92.6
2017-11-01T06:43:23.193Z,92.7
2017-11-01T06:44:25.947Z,92.7
2017-11-01T06:45:28.329Z,92.7
2017-11-01T06:46:30.707Z,92.7
2017-11-01T06:47:33.085Z,92.7
2017-11-01T06:48:35.464Z,92.8
2017-11-01T06:49:37.838Z,92.8
2017-11-01T06:50:40.224Z,92.8
2017-11-01T06:51:42.612Z,92.8
2017-11-01T06:52:44.980Z,92.8
2017-11-01T06:53:47.353Z,92.8
2017-11-01T06:54:49.724Z,92.9
2017-11-01T06:55:52.110Z,92.8
2017-11-01T06:56:54.849Z,92.8
2017-11-01T06:57:57.233Z,92.8
2017-11-01T06:58:59.993Z,92.9
2017-11-01T07:00:02.370Z,92.9
2017-11-01T07:01:05.091Z,92.8
2017-11-01T07:02:07.461Z,92.9
2017-11-01T07:03:09.833Z,92.9
2017-11-01T07:04:12.210Z,92.9
2017-11-01T07:05:14.956Z,92.9
2017-11-01T07:06:17.325Z,92.8
2017-11-01T07:07:19.702Z,92.8
2017-11-01T07:08:22.080Z,92.8
2017-11-01T07:09:24.445Z,92.8
2017-11-01T07:10:26.835Z,92.8
2017-11-01T07:11:29.219Z,92.8
2017-11-01T07:12:31.598Z,92.9
2017-11-01T07:13:33.978Z,92.9
2017-11-01T07:14:36.356Z,92.9
2017-11-01T07:15:38.735Z,92.9
2017-11-01T07:16:41.135Z,93
2017-11-01T07:17:43.511Z,93.1
2017-11-01T07:18:45.899Z,93.1
2017-11-01T07:19:48.252Z,93.2
2017-11-01T07:20:51.028Z,93.1
2017-11-01T07:21:53.407Z,93
2017-11-01T07:22:55.782Z,93
2017-11-01T07:23:58.546Z,93
2017-11-01T07:25:00.905Z,93
2017-11-01T07:26:03.284Z,93
2017-11-01T07:27:05.664Z,93
2017-11-01T07:28:08.043Z,93
2017-11-01T07:29:10.421Z,93.1
2017-11-01T07:30:12.798Z,93.1
2017-11-01T07:31:15.520Z,93.1
2017-11-01T07:32:17.896Z,93.1
2017-11-01T07:33:20.278Z,93.1
2017-11-01T07:34:22.655Z,93.1
2017-11-01T07:35:25.023Z,93.1
2017-11-01T07:36:27.393Z,93.1
2017-11-01T07:37:30.126Z,93.1
2017-11-01T07:38:32.854Z,93.1
2017-11-01T07:39:35.585Z,93.1
2017-11-01T07:40:37.966Z,93.1
2017-11-01T07:41:40.700Z,93.2
2017-11-01T07:42:43.082Z,93.2
2017-11-01T07:43:45.455Z,93.2
2017-11-01T07:44:47.839Z,93.2
2017-11-01T07:45:50.206Z,93.2
2017-11-01T07:46:52.587Z,93.2
2017-11-01T07:47:54.976Z,93.2
2017-11-01T07:48:57.345Z,93.2
2017-11-01T07:49:59.721Z,93.3
2017-11-01T07:51:02.461Z,93.3
2017-11-01T07:52:04.830Z,93.3
2017-11-01T07:53:07.210Z,93.3
2017-11-01T07:54:09.580Z,93.3
2017-11-01T07:55:11.953Z,93.3
2017-11-01T07:56:14.332Z,93.2
2017-11-01T07:57:16.723Z,93.2
2017-11-01T07:58:19.100Z,93.2
2017-11-01T07:59:21.830Z,93.3
2017-11-01T08:00:24.203Z,93.3
2017-11-01T08:01:26.572Z,93.2
2017-11-01T08:02:28.944Z,93.2
2017-11-01T08:03:31.325Z,93.2
2017-11-01T08:04:33.705Z,93.2
2017-11-01T08:05:36.080Z,93.2
2017-11-01T08:06:38.450Z,93.2
2017-11-01T08:07:40.853Z,93.3
2017-11-01T08:08:43.601Z,93.2
2017-11-01T08:09:45.977Z,93.2
2017-11-01T08:10:48.353Z,93.3
2017-11-01T08:11:51.092Z,93.4
2017-11-01T08:12:53.465Z,93.3
2017-11-01T08:13:55.858Z,93.3
2017-11-01T08:14:58.238Z,93.3
2017-11-01T08:16:00.862Z,93.2
2017-11-01T08:17:03.872Z,93.3
2017-11-01T08:18:06.281Z,93.4
2017-11-01T08:19:08.676Z,93.3
2017-11-01T08:20:11.109Z,93.4
2017-11-01T08:21:13.496Z,93.3
2017-11-01T08:22:15.910Z,93.3
2017-11-01T08:23:18.297Z,93.2
2017-11-01T08:24:21.042Z,93.2
2017-11-01T08:25:23.690Z,93.2
2017-11-01T08:26:26.095Z,93.2
2017-11-01T08:27:28.591Z,93.3
2017-11-01T08:28:31.488Z,93.3
2017-11-01T08:29:34.290Z,93.3
2017-11-01T08:30:37.381Z,93.3
2017-11-01T08:31:39.777Z,93.3
2017-11-01T08:32:42.182Z,93.4
2017-11-01T08:33:44.721Z,93.5
2017-11-01T08:34:47.711Z,93.4
2017-11-01T08:35:50.135Z,93.4
2017-11-01T08:36:52.931Z,93.3
2017-11-01T08:37:55.298Z,93.4
2017-11-01T08:38:58.316Z,93.4
2017-11-01T08:40:01.044Z,93.5
2017-11-01T08:41:03.425Z,93.6
2017-11-01T08:42:05.824Z,93.6
2017-11-01T08:43:08.258Z,93.6
2017-11-01T08:44:10.663Z,93.6
2017-11-01T08:45:13.265Z,93.6
2017-11-01T08:46:16.050Z,93.6
2017-11-01T08:47:18.783Z,93.6
2017-11-01T08:48:21.210Z,93.6
2017-11-01T08:49:23.606Z,93.5
2017-11-01T08:50:26.346Z,93.5
2017-11-01T08:51:29.545Z,93.5
2017-11-01T08:52:31.920Z,93.6
2017-11-01T08:53:34.340Z,93.5
2017-11-01T08:54:36.781Z,93.5
2017-11-01T08:55:39.155Z,93.5
2017-11-01T08:56:41.563Z,93.4
2017-11-01T08:57:43.927Z,93.3
2017-11-01T08:58:46.296Z,93.2
2017-11-01T08:59:49.035Z,93.3
2017-11-01T09:00:51.511Z,93.3
2017-11-01T09:01:53.952Z,93.3
2017-11-01T09:02:56.321Z,93.3
2017-11-01T09:03:58.692Z,93.4
2017-11-01T09:05:01.085Z,93.3
2017-11-01T09:06:03.487Z,93.3
2017-11-01T09:07:05.885Z,93.4
2017-11-01T09:08:08.263Z,93.4
2017-11-01T09:09:11.049Z,93.4
2017-11-01T09:10:13.573Z,93.4
2017-11-01T09:11:16.302Z,93.5
2017-11-01T09:12:18.689Z,93.5
2017-11-01T09:13:21.083Z,93.6
2017-11-01T09:14:23.467Z,93.6
2017-11-01T09:15:26.186Z,93.5
2017-11-01T09:16:28.568Z,93.4
2017-11-01T09:17:30.944Z,93.5
2017-11-01T09:18:33.348Z,93.5
2017-11-01T09:19:35.738Z,93.5
2017-11-01T09:20:38.105Z,93.5
2017-11-01T09:21:40.498Z,93.5
2017-11-01T09:22:42.866Z,93.4
2017-11-01T09:23:45.260Z,93.4
2017-11-01T09:24:47.633Z,93.4
2017-11-01T09:25:50.010Z,93.4
2017-11-01T09:26:52.383Z,93.4
2017-11-01T09:27:54.765Z,93.4
2017-11-01T09:28:57.142Z,93.4
2017-11-01T09:29:59.524Z,93.4
2017-11-01T09:31:01.901Z,93.5
2017-11-01T09:32:04.289Z,93.5
2017-11-01T09:33:06.655Z,93.5
2017-11-01T09:34:09.034Z,93.5
2017-11-01T09:35:11.409Z,93.4
2017-11-01T09:36:14.151Z,93.4
2017-11-01T09:37:16.531Z,93.4
2017-11-01T09:38:18.910Z,93.5
2017-11-01T09:39:21.281Z,93.5
2017-11-01T09:40:23.671Z,93.5
2017-11-01T09:41:26.040Z,93.5
2017-11-01T09:42:28.430Z,93.4
2017-11-01T09:43:30.864Z,93.4
2017-11-01T09:44:33.262Z,93.4
2017-11-01T09:45:35.654Z,93.4
2017-11-01T09:46:38.014Z,93.5
2017-11-01T09:47:40.402Z,93.5
2017-11-01T09:48:42.791Z,93.5
2017-11-01T09:49:45.163Z,93.5
2017-11-01T09:50:47.541Z,93.5
2017-11-01T09:51:49.914Z,93.5
2017-11-01T09:52:52.287Z,93.5
2017-11-01T09:53:54.676Z,93.5
2017-11-01T09:54:57.061Z,93.5
2017-11-01T09:55:59.436Z,93.5
2017-11-01T09:57:01.838Z,93.6
2017-11-01T09:58:04.208Z,93.6
2017-11-01T09:59:06.595Z,93.5
2017-11-01T10:00:09.021Z,93.6
2017-11-01T10:01:11.393Z,93.5
2017-11-01T10:02:13.780Z,93.5
2017-11-01T10:03:16.148Z,93.5
2017-11-01T10:04:18.537Z,93.5
2017-11-01T10:05:20.918Z,93.6
2017-11-01T10:06:23.301Z,93.5
2017-11-01T10:07:25.700Z,93.5
2017-11-01T10:08:28.079Z,93.5
2017-11-01T10:09:30.803Z,93.5
2017-11-01T10:10:33.185Z,93.3
2017-11-01T10:11:35.564Z,93.3
2017-11-01T10:12:38.305Z,93.3
2017-11-01T10:13:40.681Z,93.5
2017-11-01T10:14:43.068Z,93.4
2017-11-01T10:15:45.443Z,93.5
2017-11-01T10:16:47.811Z,93.4
2017-11-01T10:17:50.185Z,93.5
2017-11-01T10:18:52.566Z,93.5
2017-11-01T10:19:54.984Z,93.6
2017-11-01T10:20:57.361Z,93.5
2017-11-01T10:21:59.737Z,93.5
2017-11-01T10:23:02.470Z,93.4
2017-11-01T10:24:04.847Z,93.5
2017-11-01T10:25:07.219Z,93.6
2017-11-01T10:26:09.604Z,93.6
2017-11-01T10:27:11.991Z,93.7
2017-11-01T10:28:14.728Z,93.8
2017-11-01T10:29:17.100Z,93.7
2017-11-01T10:30:19.827Z,93.7
2017-11-01T10:31:22.569Z,93.7
2017-11-01T10:32:25.291Z,93.7
2017-11-01T10:33:27.658Z,93.8
2017-11-01T10:34:30.035Z,93.9
2017-11-01T10:35:32.418Z,93.9
2017-11-01T10:36:35.249Z,93.8
2017-11-01T10:37:37.984Z,93.8
2017-11-01T10:38:40.344Z,93.8
2017-11-01T10:39:42.727Z,93.7
2017-11-01T10:40:45.113Z,93.7
2017-11-01T10:41:47.487Z,93.7
2017-11-01T10:42:49.860Z,93.9
2017-11-01T10:43:52.244Z,93.9
2017-11-01T10:44:54.619Z,93.8
2017-11-01T10:45:56.982Z,93.9
2017-11-01T10:46:59.374Z,93.9
2017-11-01T10:48:01.742Z,93.8
2017-11-01T10:49:04.480Z,93.7
2017-11-01T10:50:06.873Z,93.7
2017-11-01T10:51:09.232Z,93.7
2017-11-01T10:52:11.622Z,93.8
2017-11-01T10:53:14.362Z,93.8
2017-11-01T10:54:16.730Z,93.8
2017-11-01T10:55:19.106Z,93.8
2017-11-01T10:56:21.491Z,93.8
2017-11-01T10:57:23.872Z,93.7
2017-11-01T10:58:26.256Z,93.7
2017-11-01T10:59:28.637Z,93.7
2017-11-01T11:00:31.373Z,93.8
2017-11-01T11:01:33.758Z,93.8
2017-11-01T11:02:36.139Z,93.7
2017-11-01T11:03:38.508Z,93.8
2017-11-01T11:04:40.880Z,93.8
2017-11-01T11:05:44.818Z,93.9
2017-11-01T11:06:53.896Z,93.8
2017-11-01T11:08:03.776Z,93.8
2017-11-01T11:09:15.731Z,93.8
2017-11-01T11:10:29.408Z,93.8
2017-11-01T11:11:41.302Z,93.9
2017-11-01T11:12:54.993Z,93.8
2017-11-01T11:14:03.765Z,93.9
2017-11-01T11:15:06.138Z,93.7
2017-11-01T11:16:08.514Z,93.8
2017-11-01T11:17:10.891Z,93.8
2017-11-01T11:18:13.613Z,93.9
2017-11-01T11:19:16.000Z,93.9
2017-11-01T11:20:18.375Z,93.9
2017-11-01T11:21:20.742Z,94
2017-11-01T11:22:23.127Z,94
2017-11-01T11:23:25.515Z,94
2017-11-01T11:24:27.883Z,93.9
2017-11-01T11:25:30.603Z,93.9
2017-11-01T11:26:32.984Z,94
2017-11-01T11:27:35.374Z,93.9
2017-11-01T11:28:37.751Z,93.7
2017-11-01T11:29:40.128Z,93.9
2017-11-01T11:30:42.506Z,93.7
2017-11-01T11:31:45.253Z,93.7
2017-11-01T11:32:47.986Z,93.7
2017-11-01T11:33:50.376Z,93.9
2017-11-01T11:34:53.079Z,94
2017-11-01T11:35:55.454Z,94
2017-11-01T11:36:57.846Z,94.1
2017-11-01T11:38:00.217Z,94.1
2017-11-01T11:39:02.600Z,94.1
2017-11-01T11:40:05.323Z,94.1
2017-11-01T11:41:08.040Z,94
2017-11-01T11:42:10.422Z,93.9
2017-11-01T11:43:12.809Z,93.9
2017-11-01T11:44:15.542Z,94
2017-11-01T11:45:17.922Z,93.9
2017-11-01T11:46:20.652Z,93.9
2017-11-01T11:47:23.047Z,93.8
2017-11-01T11:48:25.444Z,93.9
2017-11-01T11:49:27.823Z,93.9
2017-11-01T11:50:30.550Z,93.9
2017-11-01T11:51:32.923Z,94
2017-11-01T11:52:35.302Z,94
2017-11-01T11:53:37.673Z,93.9
2017-11-01T11:54:40.057Z,93.8
2017-11-01T11:55:42.450Z,93.9
2017-11-01T11:56:44.828Z,93.9
2017-11-01T11:57:47.577Z,94
2017-11-01T11:58:49.956Z,94
2017-11-01T11:59:52.334Z,93.9
2017-11-01T12:00:54.711Z,93.9
2017-11-01T12:01:57.095Z,93.9
2017-11-01T12:02:59.480Z,93.8
2017-11-01T12:04:01.865Z,93.8
2017-11-01T12:05:04.239Z,93.9
2017-11-01T12:06:06.624Z,93.9
2017-11-01T12:07:09.008Z,93.8
2017-11-01T12:08:11.392Z,93.8
2017-11-01T12:09:13.771Z,93.9
2017-11-01T12:10:16.131Z,93.9
2017-11-01T12:11:18.520Z,93.9
2017-11-01T12:12:20.911Z,93.9
2017-11-01T12:13:23.303Z,94
2017-11-01T12:14:25.685Z,94
2017-11-01T12:15:28.076Z,93.9
2017-11-01T12:16:30.447Z,93.9
2017-11-01T12:17:32.847Z,94
2017-11-01T12:18:35.219Z,94.1
2017-11-01T12:19:37.938Z,94.1
2017-11-01T12:20:40.312Z,94.1
2017-11-01T12:21:42.696Z,94.1
2017-11-01T12:22:45.066Z,94.2
2017-11-01T12:23:47.454Z,94.2
2017-11-01T12:24:49.823Z,94.1
2017-11-01T12:25:52.197Z,94
2017-11-01T12:26:54.580Z,94.1
2017-11-01T12:27:56.960Z,93.8
2017-11-01T12:28:59.338Z,93.9
2017-11-01T12:30:01.719Z,93.9
2017-11-01T12:31:04.090Z,93.8
2017-11-01T12:32:06.483Z,93.8
2017-11-01T12:33:08.871Z,93.6
2017-11-01T12:34:11.236Z,93.7
2017-11-01T12:35:13.986Z,93.7
2017-11-01T12:36:16.371Z,93.8
2017-11-01T12:37:18.748Z,93.8
2017-11-01T12:38:21.130Z,93.8
2017-11-01T12:39:23.519Z,93.8
2017-11-01T12:40:26.250Z,93.7
2017-11-01T12:41:28.638Z,93.8
2017-11-01T12:42:31.019Z,93.8
2017-11-01T12:43:33.409Z,93.8
2017-11-01T12:44:36.117Z,93.8
2017-11-01T12:45:38.510Z,93.6
2017-11-01T12:46:40.881Z,93.6
2017-11-01T12:47:43.255Z,93.6
2017-11-01T12:48:45.633Z,93.6
2017-11-01T12:49:48.017Z,93.7
2017-11-01T12:50:50.754Z,93.7
2017-11-01T12:51:53.140Z,93.7
2017-11-01T12:52:55.503Z,93.6
2017-11-01T12:53:57.882Z,93.6
2017-11-01T12:55:00.262Z,93.6
2017-11-01T12:56:02.649Z,93.6
2017-11-01T12:57:05.022Z,93.6
2017-11-01T12:58:07.387Z,93.6
2017-11-01T12:59:09.766Z,93.6
2017-11-01T13:00:12.156Z,93.5
2017-11-01T13:01:14.534Z,93.6
2017-11-01T13:02:16.921Z,93.7
2017-11-01T13:03:19.296Z,93.9
2017-11-01T13:04:21.681Z,93.9
2017-11-01T13:05:24.062Z,93.8
2017-11-01T13:06:26.436Z,93.8
2017-11-01T13:07:28.803Z,93.7
2017-11-01T13:08:31.194Z,93.6
2017-11-01T13:09:33.575Z,93.7
2017-11-01T13:10:35.957Z,93.6
2017-11-01T13:11:38.339Z,93.7
2017-11-01T13:12:40.716Z,93.7
2017-11-01T13:13:43.087Z,93.7
2017-11-01T13:14:45.460Z,93.7
2017-11-01T13:15:47.843Z,93.7
2017-11-01T13:16:50.210Z,93.7
2017-11-01T13:17:52.953Z,93.7
2017-11-01T13:18:55.330Z,93.6
2017-11-01T13:19:57.898Z,93.6
2017-11-01T13:21:00.692Z,93.7
2017-11-01T13:22:03.067Z,93.7
2017-11-01T13:23:05.433Z,93.7
2017-11-01T13:24:07.829Z,93.7
2017-11-01T13:25:10.208Z,93.7
2017-11-01T13:26:12.959Z,93.6
2017-11-01T13:27:15.713Z,93.6
2017-11-01T13:28:18.085Z,93.6
2017-11-01T13:29:20.458Z,93.6
2017-11-01T13:30:22.845Z,93.7
2017-11-01T13:31:25.214Z,93.8
2017-11-01T13:32:27.947Z,93.7
2017-11-01T13:33:30.322Z,93.8
2017-11-01T13:34:32.699Z,93.7
2017-11-01T13:35:35.085Z,93.7
2017-11-01T13:36:37.808Z,93.7
2017-11-01T13:37:40.187Z,93.7
2017-11-01T13:38:42.556Z,93.6
2017-11-01T13:39:44.938Z,93.5
2017-11-01T13:40:47.326Z,93.6
2017-11-01T13:41:49.699Z,93.5
2017-11-01T13:42:52.075Z,93.6
2017-11-01T13:43:54.449Z,93.6
2017-11-01T13:44:56.860Z,93.6
2017-11-01T13:45:59.373Z,93.7
2017-11-01T13:47:01.806Z,93.7
2017-11-01T13:48:04.455Z,93.7
2017-11-01T13:49:07.182Z,93.6
2017-11-01T13:50:09.567Z,93.6
2017-11-01T13:51:11.951Z,93.5
2017-11-01T13:52:14.323Z,93.5
2017-11-01T13:53:16.700Z,93.6
2017-11-01T13:54:19.085Z,93.6
2017-11-01T13:55:21.474Z,93.6
2017-11-01T13:56:23.850Z,93.6
2017-11-01T13:57:26.350Z,93.6
2017-11-01T13:58:28.721Z,93.5
2017-11-01T13:59:31.111Z,93.6
2017-11-01T14:00:33.489Z,93.6